Cedar Springs, MI (49319)

1:02 PM EST on February 27, 2017 (GMT -0500)
SE Cedar Springs | | Change Station

Elev 865 ft 43.19 °N, 85.51 °W | Updated 1 second ago

Clear
Clear
44.4 °F
Feels Like 42 °F
N
4.0
Wind Variable Wind from North
Gusts 10.0 mph

Today
High -- | Low -- °F
--% Chance of Precip.
Yesterday
High -- | Low -- °F
Precip. -- in
Pressure 30.19 in
Visibility 10.0 miles
Clouds Few 9000 ft
Few 20000 ft
Windchill 42 °F
Dew Point 25 °F
Humidity 47%
Rainfall 0.00 in
Snow Depth Not available.
7:21 AM 6:29 PM
New Moon, 2% visible
METAR KGRR 271753Z 18005KT 10SM FEW090 FEW200 07/M02 A3017 RMK AO2 SLP222 T00721022 10078 21033 58007
Pressure 30.19 in
Visibility 10.0 miles
Clouds Few 9000 ft
Few 20000 ft
Windchill 42 °F
Dew Point 25 °F
Humidity 47%
Rainfall 0.00 in
Snow Depth Not available.
7:21 AM 6:29 PM
New Moon, 2% visible
METAR KGRR 271753Z 18005KT 10SM FEW090 FEW200 07/M02 A3017 RMK AO2 SLP222 T00721022 10078 21033 58007

Get Your Daily Forecast Email!

Thanks for signing up!

Be on the lookout for a verification email in your inbox.

You'll start receiving the daily forecast at 8 AM.

×

10-Day Weather Forecast

Almanac

Astronomy

Feb. 27, 2017 Rise Set
Actual Time
Civil Twilight
Nautical Twilight
Astronomical Twilight
Moon
Length of Visible Light
Length of Day
Tomorrow will be .
, % of the Moon is Illuminated

Today's Extremes

State Highs State Lows

Community

WunderPhotos

Upload Photos

1,962,540 photos uploaded!

WunderBlog® & News

Nearby

Air Quality

  Air Quality AQ Index Pollutant
Not available.

Snow Depth

Station Depth Elevation

Earthquake Activity

City Distance Mag. Time & Date
Minimum magnitude displayed is 2.5.

Coastal Water Temperatures

Place Temperature

Stations

Nearby Weather Stations

Station Location Temp. Windchill Dew Point Humidity Wind Precip. Elev Updated Type
                   

Watches & Warnings

There are currently no watches in effect.